createdAt,value
2023-05-04T00:00:15.945Z,100.00
2023-05-04T00:03:20.956Z,100.00
2023-05-04T00:06:24.091Z,100.00
2023-05-04T00:09:28.208Z,100.00
2023-05-04T00:12:31.316Z,100.00
2023-05-04T00:15:34.956Z,100.00
2023-05-04T00:18:41.466Z,100.00
2023-05-04T00:21:44.991Z,100.00
2023-05-04T00:24:49.122Z,100.00
2023-05-04T00:27:52.076Z,100.00
2023-05-04T00:30:55.594Z,100.00
2023-05-04T00:34:00.054Z,100.00
2023-05-04T00:37:03.827Z,100.00
2023-05-04T00:40:07.252Z,100.00
2023-05-04T00:43:12.337Z,100.00
2023-05-04T00:46:15.942Z,100.00
2023-05-04T00:49:20.094Z,100.00
2023-05-04T00:52:24.830Z,100.00
2023-05-04T00:55:27.805Z,100.00
2023-05-04T00:58:33.060Z,100.00
2023-05-04T01:01:37.017Z,100.00
2023-05-04T01:04:39.459Z,100.00
2023-05-04T01:07:41.890Z,100.00
2023-05-04T01:10:45.163Z,100.00
2023-05-04T01:13:49.497Z,100.00
2023-05-04T01:16:57.734Z,100.00
2023-05-04T01:20:00.065Z,100.00
2023-05-04T01:23:02.949Z,100.00
2023-05-04T01:26:06.236Z,100.00
2023-05-04T01:29:19.618Z,100.00
2023-05-04T01:32:24.715Z,100.00
2023-05-04T01:35:27.707Z,100.00
2023-05-04T01:38:30.695Z,100.00
2023-05-04T01:41:34.094Z,100.00
2023-05-04T01:44:36.909Z,100.00
2023-05-04T01:47:40.929Z,100.00
2023-05-04T01:50:44.711Z,100.00
2023-05-04T01:53:50.749Z,100.00
2023-05-04T01:56:53.842Z,100.00
2023-05-04T01:59:56.732Z,100.00
2023-05-04T02:02:59.643Z,100.00
2023-05-04T02:06:05.421Z,100.00
2023-05-04T02:09:08.460Z,100.00
2023-05-04T02:12:12.712Z,100.00
2023-05-04T02:15:15.419Z,100.00
2023-05-04T02:18:18.288Z,100.00
2023-05-04T02:21:22.482Z,100.00
2023-05-04T02:24:25.141Z,100.00
2023-05-04T02:27:29.239Z,100.00
2023-05-04T02:30:33.114Z,100.00
2023-05-04T02:33:37.446Z,100.00
2023-05-04T02:36:40.366Z,100.00
2023-05-04T02:39:43.356Z,100.00
2023-05-04T02:42:47.744Z,100.00
2023-05-04T02:45:50.981Z,100.00
2023-05-04T02:48:54.329Z,100.00
2023-05-04T02:51:57.645Z,100.00
2023-05-04T02:55:01.783Z,100.00
2023-05-04T02:58:05.576Z,100.00
2023-05-04T03:01:08.607Z,100.00
2023-05-04T03:04:11.928Z,100.00
2023-05-04T03:07:17.415Z,100.00
2023-05-04T03:10:23.171Z,100.00
2023-05-04T03:13:30.256Z,100.00
2023-05-04T03:16:34.023Z,100.00
2023-05-04T03:19:38.074Z,100.00
2023-05-04T03:22:42.807Z,100.00
2023-05-04T03:25:45.598Z,100.00
2023-05-04T03:28:50.670Z,100.00
2023-05-04T03:31:53.793Z,100.00
2023-05-04T03:34:57.938Z,100.00
2023-05-04T03:38:01.752Z,100.00
2023-05-04T03:41:07.487Z,100.00
2023-05-04T03:44:10.084Z,100.00
2023-05-04T03:47:14.396Z,100.00
2023-05-04T03:50:19.019Z,100.00
2023-05-04T03:53:23.920Z,100.00
2023-05-04T03:56:28.321Z,100.00
2023-05-04T03:59:32.444Z,100.00
2023-05-04T04:02:37.209Z,100.00
2023-05-04T04:05:41.109Z,100.00
2023-05-04T04:08:45.965Z,100.00
2023-05-04T04:11:51.480Z,100.00
2023-05-04T04:14:57.354Z,100.00
2023-05-04T04:18:01.052Z,100.00
2023-05-04T04:21:11.740Z,100.00
2023-05-04T04:24:16.859Z,100.00
2023-05-04T04:27:22.123Z,100.00
2023-05-04T04:30:25.233Z,100.00
2023-05-04T04:33:32.999Z,100.00
2023-05-04T04:36:38.668Z,100.00
2023-05-04T04:39:46.145Z,100.00
2023-05-04T04:42:52.416Z,100.00
2023-05-04T04:45:57.044Z,100.00
2023-05-04T04:49:00.850Z,100.00
2023-05-04T04:52:04.647Z,100.00
2023-05-04T04:55:10.539Z,100.00
2023-05-04T04:58:17.594Z,100.00
2023-05-04T05:01:22.082Z,100.00
2023-05-04T05:04:27.511Z,97.12
2023-05-04T05:07:33.645Z,96.57
2023-05-04T05:10:38.895Z,95.97
2023-05-04T05:13:42.241Z,94.16
2023-05-04T05:16:45.399Z,94.07
2023-05-04T05:19:51.118Z,90.56
2023-05-04T05:22:55.243Z,87.31
2023-05-04T05:26:00.853Z,85.67
2023-05-04T05:29:05.462Z,82.01
2023-05-04T05:32:09.158Z,82.98
2023-05-04T05:35:13.691Z,82.21
2023-05-04T05:38:18.122Z,82.52
2023-05-04T05:41:21.822Z,76.35
2023-05-04T05:44:26.240Z,74.10
2023-05-04T05:47:30.458Z,74.00
2023-05-04T05:50:35.531Z,75.39
2023-05-04T05:53:39.833Z,77.76
2023-05-04T05:56:43.242Z,73.72
2023-05-04T05:59:47.866Z,72.62
2023-05-04T06:02:56.716Z,72.50
2023-05-04T06:06:02.284Z,73.94
2023-05-04T06:09:06.981Z,74.60
2023-05-04T06:12:14.269Z,74.00
2023-05-04T06:15:18.168Z,72.41
2023-05-04T06:18:22.677Z,71.92
2023-05-04T06:21:26.718Z,69.63
2023-05-04T06:24:32.785Z,68.91
2023-05-04T06:27:35.565Z,69.06
2023-05-04T06:30:39.247Z,66.59
2023-05-04T06:33:43.380Z,65.82
2023-05-04T06:36:47.485Z,65.60
2023-05-04T06:39:50.462Z,65.01
2023-05-04T06:42:53.322Z,64.74
2023-05-04T06:45:56.261Z,65.24
2023-05-04T06:48:59.023Z,62.60
2023-05-04T06:52:06.434Z,61.80
2023-05-04T06:55:09.787Z,60.92
2023-05-04T07:01:34.515Z,65.78
2023-05-04T07:04:39.214Z,67.68
2023-05-04T07:07:41.860Z,68.05
2023-05-04T07:10:44.909Z,67.50
2023-05-04T07:13:51.067Z,64.68
2023-05-04T07:16:55.991Z,54.65
2023-05-04T07:20:01.926Z,54.41
2023-05-04T07:23:07.053Z,48.76
2023-05-04T07:26:09.556Z,41.13
2023-05-04T07:29:17.048Z,37.07
2023-05-04T07:32:21.248Z,34.59
2023-05-04T07:35:24.188Z,33.76
2023-05-04T07:38:27.055Z,34.84
2023-05-04T07:41:29.958Z,36.49
2023-05-04T07:44:34.589Z,35.16
2023-05-04T07:47:40.862Z,35.78
2023-05-04T07:50:43.252Z,35.24
2023-05-04T07:53:45.931Z,36.13
2023-05-04T07:56:50.976Z,36.75
2023-05-04T07:59:57.247Z,33.91
2023-05-04T08:03:00.804Z,36.60
2023-05-04T08:06:06.093Z,34.07
2023-05-04T08:09:10.203Z,39.93
2023-05-04T08:12:13.394Z,44.19
2023-05-04T08:15:17.226Z,48.82
2023-05-04T08:18:19.914Z,50.24
2023-05-04T08:21:22.682Z,49.50
2023-05-04T08:24:25.250Z,51.79
2023-05-04T08:27:31.489Z,52.45
2023-05-04T08:30:34.239Z,54.27
2023-05-04T08:33:43.975Z,53.18
2023-05-04T08:36:49.116Z,52.48
2023-05-04T08:39:51.451Z,54.83
2023-05-04T08:42:55.915Z,54.05
2023-05-04T08:45:59.443Z,55.01
2023-05-04T08:49:02.206Z,54.70
2023-05-04T08:52:08.919Z,52.73
2023-05-04T08:55:14.574Z,53.09
2023-05-04T08:58:19.156Z,54.85
2023-05-04T09:01:29.785Z,51.28
2023-05-04T09:04:34.364Z,53.04
2023-05-04T09:07:37.757Z,52.37
2023-05-04T09:10:40.560Z,53.04
2023-05-04T09:13:48.554Z,51.80
2023-05-04T09:16:55.395Z,51.97
2023-05-04T09:20:04.406Z,51.04
2023-05-04T09:23:11.172Z,48.53
2023-05-04T09:26:14.668Z,48.52
2023-05-04T09:29:17.687Z,51.71
2023-05-04T09:32:24.716Z,49.67
2023-05-04T09:35:34.117Z,47.70
2023-05-04T09:38:42.234Z,48.73
2023-05-04T09:41:45.978Z,47.41
2023-05-04T09:45:00.349Z,49.34
2023-05-04T09:48:20.579Z,51.20
2023-05-04T09:51:29.616Z,47.86
2023-05-04T09:54:35.170Z,49.43
2023-05-04T09:57:39.638Z,48.11
2023-05-04T10:00:45.575Z,49.68
2023-05-04T10:03:48.019Z,48.47
2023-05-04T10:06:50.803Z,48.56
2023-05-04T10:09:53.538Z,48.23
2023-05-04T10:12:57.166Z,48.13
2023-05-04T10:16:16.321Z,48.46
2023-05-04T10:19:43.200Z,48.44
2023-05-04T10:22:52.904Z,48.10
2023-05-04T10:25:55.831Z,47.89
2023-05-04T10:29:05.797Z,48.04
2023-05-04T10:32:28.954Z,48.27
2023-05-04T10:35:35.346Z,48.46
2023-05-04T10:38:40.756Z,49.93
2023-05-04T10:41:56.663Z,49.17
2023-05-04T10:45:00.044Z,48.72
2023-05-04T10:51:38.891Z,49.93
2023-05-04T10:55:00.672Z,49.62
2023-05-04T10:58:03.856Z,48.32
2023-05-04T11:01:15.565Z,46.36
2023-05-04T11:04:35.464Z,48.06
2023-05-04T11:07:43.159Z,47.72
2023-05-04T11:10:53.192Z,45.33
2023-05-04T11:13:58.535Z,45.42
2023-05-04T11:20:24.264Z,45.27
2023-05-04T11:23:27.219Z,44.02
2023-05-04T11:26:29.613Z,46.10
2023-05-04T11:29:33.064Z,45.16
2023-05-04T11:32:39.965Z,44.17
2023-05-04T11:35:46.022Z,45.95
2023-05-04T11:38:50.465Z,46.35
2023-05-04T11:41:54.342Z,47.36
2023-05-04T11:44:57.772Z,49.04
2023-05-04T11:48:02.006Z,48.13
2023-05-04T11:51:08.850Z,48.51
2023-05-04T11:57:40.836Z,50.28
2023-05-04T12:00:55.398Z,47.52
2023-05-04T12:03:59.024Z,49.46
2023-05-04T12:07:06.716Z,48.27
2023-05-04T12:10:09.188Z,48.28
2023-05-04T12:13:19.752Z,48.46
2023-05-04T12:16:27.716Z,49.68
2023-05-04T12:19:36.662Z,51.94
2023-05-04T12:22:40.967Z,49.12
2023-05-04T12:25:57.773Z,47.35
2023-05-04T12:29:01.685Z,47.02
2023-05-04T12:32:05.395Z,47.73
2023-05-04T12:35:08.037Z,49.38
2023-05-04T12:38:13.420Z,48.28
2023-05-04T12:41:15.841Z,50.89
2023-05-04T12:44:18.951Z,51.13
2023-05-04T12:47:26.191Z,51.63
2023-05-04T12:50:31.453Z,52.13
2023-05-04T12:53:33.783Z,53.31
2023-05-04T12:56:36.735Z,54.15
2023-05-04T12:59:39.266Z,55.16
2023-05-04T13:02:47.719Z,56.67
2023-05-04T13:05:50.051Z,56.82
2023-05-04T13:08:56.484Z,57.94
2023-05-04T13:12:00.710Z,58.34
2023-05-04T13:15:03.956Z,58.83
2023-05-04T13:18:08.968Z,59.04
2023-05-04T13:21:11.874Z,60.88
2023-05-04T13:24:14.564Z,62.25
2023-05-04T13:27:16.964Z,59.32
2023-05-04T13:30:24.617Z,58.18
2023-05-04T13:33:30.248Z,58.68
2023-05-04T13:36:36.667Z,59.86
2023-05-04T13:39:43.029Z,60.29
2023-05-04T13:42:45.393Z,57.71
2023-05-04T13:45:52.304Z,58.44
2023-05-04T13:48:56.898Z,57.58
2023-05-04T13:52:01.767Z,58.65
2023-05-04T13:55:06.127Z,59.19
2023-05-04T13:58:08.446Z,60.67
2023-05-04T14:01:11.385Z,59.97
2023-05-04T14:04:14.135Z,58.28
2023-05-04T14:07:17.572Z,58.80
2023-05-04T14:10:19.926Z,57.12
2023-05-04T14:13:25.399Z,57.38
2023-05-04T14:16:28.555Z,58.07
2023-05-04T14:19:33.360Z,57.80
2023-05-04T14:22:43.329Z,58.90
2023-05-04T14:25:59.653Z,57.82
2023-05-04T14:29:02.365Z,55.44
2023-05-04T14:32:04.982Z,54.78
2023-05-04T14:35:11.234Z,55.32
2023-05-04T14:38:13.757Z,54.98
2023-05-04T14:41:16.712Z,54.31
2023-05-04T14:44:23.370Z,54.82
2023-05-04T14:47:30.176Z,55.70
2023-05-04T14:50:32.682Z,55.71
2023-05-04T14:53:36.998Z,55.55
2023-05-04T14:56:41.650Z,57.10
2023-05-04T14:59:45.229Z,56.17
2023-05-04T15:02:48.472Z,56.89
2023-05-04T15:05:51.866Z,55.97
2023-05-04T15:09:03.840Z,55.00
2023-05-04T15:12:10.416Z,56.95
2023-05-04T15:15:14.208Z,57.41
2023-05-04T15:18:19.917Z,58.80
2023-05-04T15:21:23.205Z,58.91
2023-05-04T15:24:26.754Z,59.87
2023-05-04T15:27:29.978Z,60.82
2023-05-04T15:30:32.831Z,59.80
2023-05-04T15:33:35.867Z,60.24
2023-05-04T15:36:38.773Z,58.52
2023-05-04T15:39:41.843Z,58.20
2023-05-04T15:42:44.264Z,58.01
2023-05-04T15:45:47.365Z,57.47
2023-05-04T15:48:50.449Z,58.91
2023-05-04T15:51:54.380Z,59.07
2023-05-04T15:54:57.519Z,58.82
2023-05-04T15:58:00.546Z,59.00
2023-05-04T16:01:04.592Z,60.14
2023-05-04T16:04:07.655Z,60.29
2023-05-04T16:07:11.975Z,60.69
2023-05-04T16:10:15.754Z,60.30
2023-05-04T16:13:19.211Z,60.83
2023-05-04T16:16:23.649Z,59.52
2023-05-04T16:19:26.697Z,60.86
2023-05-04T16:22:30.590Z,59.95
2023-05-04T16:25:33.899Z,59.83
2023-05-04T16:28:37.063Z,60.16
2023-05-04T16:31:40.347Z,60.51
2023-05-04T16:34:43.234Z,62.06
2023-05-04T16:37:47.092Z,62.92
2023-05-04T16:40:51.871Z,63.24
2023-05-04T16:43:55.521Z,63.21
2023-05-04T16:47:00.265Z,63.30
2023-05-04T16:50:04.113Z,62.95
2023-05-04T16:53:08.361Z,63.10
2023-05-04T16:56:17.103Z,63.22
2023-05-04T16:59:20.310Z,63.66
2023-05-04T17:02:22.812Z,64.88
2023-05-04T17:05:26.994Z,64.65
2023-05-04T17:08:31.139Z,64.75
2023-05-04T17:11:34.163Z,65.20
2023-05-04T17:14:37.309Z,66.11
2023-05-04T17:17:42.337Z,66.27
2023-05-04T17:20:45.321Z,68.38
2023-05-04T17:23:50.471Z,67.82
2023-05-04T17:26:53.898Z,68.40
2023-05-04T17:29:56.681Z,69.54
2023-05-04T17:32:59.824Z,69.78
2023-05-04T17:36:02.292Z,70.39
2023-05-04T17:39:05.554Z,72.51
2023-05-04T17:42:08.851Z,73.17
2023-05-04T17:45:12.508Z,74.49
2023-05-04T17:48:18.075Z,75.35
2023-05-04T17:51:23.515Z,76.92
2023-05-04T17:54:27.318Z,76.89
2023-05-04T17:57:30.151Z,78.18
2023-05-04T18:00:33.706Z,78.47
2023-05-04T18:03:38.054Z,77.42
2023-05-04T18:06:41.369Z,78.06
2023-05-04T18:09:44.403Z,78.27
2023-05-04T18:12:47.781Z,78.13
2023-05-04T18:15:51.524Z,78.07
2023-05-04T18:18:56.547Z,78.50
2023-05-04T18:22:02.919Z,79.47
2023-05-04T18:25:06.328Z,81.21
2023-05-04T18:28:15.190Z,80.85
2023-05-04T18:31:18.476Z,80.91
2023-05-04T18:34:21.848Z,82.38
2023-05-04T18:37:25.890Z,82.30
2023-05-04T18:40:29.553Z,82.95
2023-05-04T18:43:33.078Z,82.97
2023-05-04T18:46:37.716Z,83.24
2023-05-04T18:49:40.912Z,84.08
2023-05-04T18:52:44.905Z,85.32
2023-05-04T18:55:48.113Z,84.86
2023-05-04T18:58:52.033Z,87.24
2023-05-04T19:01:55.385Z,87.17
2023-05-04T19:04:59.408Z,87.07
2023-05-04T19:08:02.927Z,87.77
2023-05-04T19:11:05.470Z,88.74
2023-05-04T19:14:08.199Z,90.44
2023-05-04T19:17:12.048Z,89.88
2023-05-04T19:23:20.779Z,91.93
2023-05-04T19:26:24.355Z,91.95
2023-05-04T19:29:28.620Z,93.07
2023-05-04T19:32:33.466Z,93.03
2023-05-04T19:35:37.474Z,95.30
2023-05-04T19:38:40.832Z,95.04
2023-05-04T19:41:44.626Z,95.78
2023-05-04T19:44:47.455Z,96.14
2023-05-04T19:47:51.959Z,97.21
2023-05-04T19:50:54.331Z,97.39
2023-05-04T19:53:57.009Z,97.85
2023-05-04T19:57:00.522Z,99.11
2023-05-04T20:00:04.288Z,98.12
2023-05-04T20:03:08.417Z,98.16
2023-05-04T20:06:13.274Z,98.87
2023-05-04T20:09:17.904Z,100.00
2023-05-04T20:12:20.723Z,100.00
2023-05-04T20:15:24.799Z,100.00
2023-05-04T20:18:27.688Z,100.00
2023-05-04T20:21:31.273Z,100.00
2023-05-04T20:24:34.574Z,100.00
2023-05-04T20:27:38.995Z,100.00
2023-05-04T20:30:43.474Z,100.00
2023-05-04T20:33:46.315Z,100.00
2023-05-04T20:36:49.193Z,100.00
2023-05-04T20:39:52.908Z,100.00
2023-05-04T20:42:56.841Z,100.00
2023-05-04T20:46:01.322Z,100.00
2023-05-04T20:49:04.491Z,100.00
2023-05-04T20:52:09.209Z,100.00
2023-05-04T20:55:13.068Z,100.00
2023-05-04T20:58:16.587Z,100.00
2023-05-04T21:01:19.751Z,100.00
2023-05-04T21:04:23.375Z,100.00
2023-05-04T21:07:27.032Z,100.00
2023-05-04T21:10:30.673Z,100.00
2023-05-04T21:13:33.723Z,100.00
2023-05-04T21:16:37.053Z,100.00
2023-05-04T21:19:40.044Z,99.81
2023-05-04T21:22:43.016Z,98.21
2023-05-04T21:25:46.131Z,98.44
2023-05-04T21:28:49.941Z,97.09
2023-05-04T21:31:53.733Z,97.53
2023-05-04T21:34:56.944Z,97.61
2023-05-04T21:38:00.534Z,96.97
2023-05-04T21:41:17.560Z,96.85
2023-05-04T21:44:20.649Z,98.04
2023-05-04T21:47:28.523Z,87.50
2023-05-04T21:50:31.998Z,85.27
2023-05-04T21:56:40.830Z,74.70
2023-05-04T21:59:44.713Z,74.92
2023-05-04T22:02:48.664Z,76.75
2023-05-04T22:05:55.553Z,75.71
2023-05-04T22:08:58.799Z,72.56
2023-05-04T22:12:01.338Z,72.60
2023-05-04T22:15:04.293Z,70.76
2023-05-04T22:18:06.554Z,70.91
2023-05-04T22:21:13.422Z,70.57
2023-05-04T22:24:16.725Z,65.46
2023-05-04T22:27:19.932Z,66.11
2023-05-04T22:30:23.194Z,64.86
2023-05-04T22:33:27.123Z,62.78
2023-05-04T22:36:30.858Z,64.25
2023-05-04T22:39:34.671Z,65.42
2023-05-04T22:42:39.211Z,67.78
2023-05-04T22:45:43.428Z,62.62
2023-05-04T22:48:47.642Z,63.71
2023-05-04T22:51:50.610Z,64.44
2023-05-04T22:54:53.836Z,65.61
2023-05-04T22:57:56.623Z,64.65
2023-05-04T23:01:00.338Z,63.83
2023-05-04T23:04:03.698Z,64.91
2023-05-04T23:07:07.432Z,64.50
2023-05-04T23:10:10.853Z,66.93
2023-05-04T23:13:14.961Z,65.26
2023-05-04T23:16:24.879Z,66.83
2023-05-04T23:19:32.753Z,67.85
2023-05-04T23:22:36.339Z,68.56
2023-05-04T23:25:40.886Z,66.43
2023-05-04T23:28:50.540Z,68.44
2023-05-04T23:32:02.480Z,70.57
2023-05-04T23:35:13.095Z,71.51
2023-05-04T23:38:18.100Z,73.05
2023-05-04T23:41:22.320Z,72.63
2023-05-04T23:44:24.606Z,71.64
2023-05-04T23:47:29.936Z,72.93
2023-05-04T23:50:40.310Z,75.64
2023-05-04T23:53:47.012Z,76.01
2023-05-04T23:56:51.114Z,77.08
2023-05-04T23:59:55.555Z,77.58
